Rose Hill, Kansas
Current Conditions -  °F | °C
As of 11:58 AM on Tuesday 21 Oct 2014 (Local Time) from KIAB Reporting Station
Clear Clear  
Wind Chill: 74°   Ceiling: Unl
Heat Index: 74°   Visibility: 10mi
Dew Point: 53°   Wind: 12mph
Humidity: 49%   Direction: 120°ESE
Pressure: 30.11"   Gusts: NA
Location:  37.56°N, 97.14°W
Report Text: KIAB 211658Z AUTO 12010KT 10SM CLR 23/12 A3011 RMK AO2 SLP191 T02310119
Loading
Personal Weather Stations






























Interactive Weather Map
Tropical Storm Tracking
New forecast layout! Learn more

10-Day Weather Forecast

Advertisements
Track Severe Weather on mobile